sensor_id;sensor_type;location;lat;lon;timestamp;temperature;humidity
42663;DHT22;44330;51.360;6.686;2022-09-09T00:03:45;15.30;87.80
42663;DHT22;44330;51.360;6.686;2022-09-09T00:11:13;15.20;87.90
42663;DHT22;44330;51.360;6.686;2022-09-09T00:13:52;15.20;88.20
42663;DHT22;44330;51.360;6.686;2022-09-09T00:16:25;15.30;88.20
42663;DHT22;44330;51.360;6.686;2022-09-09T00:19:15;15.20;88.10
42663;DHT22;44330;51.360;6.686;2022-09-09T00:24:51;15.20;88.50
42663;DHT22;44330;51.360;6.686;2022-09-09T00:27:45;15.20;88.80
42663;DHT22;44330;51.360;6.686;2022-09-09T00:33:10;15.30;88.90
42663;DHT22;44330;51.360;6.686;2022-09-09T00:35:51;15.30;89.00
42663;DHT22;44330;51.360;6.686;2022-09-09T00:43:31;15.30;89.10
42663;DHT22;44330;51.360;6.686;2022-09-09T00:48:29;15.30;88.70
42663;DHT22;44330;51.360;6.686;2022-09-09T00:51:02;15.40;88.50
42663;DHT22;44330;51.360;6.686;2022-09-09T00:56:30;15.40;88.10
42663;DHT22;44330;51.360;6.686;2022-09-09T00:59:23;15.50;87.40
42663;DHT22;44330;51.360;6.686;2022-09-09T01:01:51;15.40;86.70
42663;DHT22;44330;51.360;6.686;2022-09-09T01:04:27;15.40;86.60
42663;DHT22;44330;51.360;6.686;2022-09-09T01:07:07;15.30;86.80
42663;DHT22;44330;51.360;6.686;2022-09-09T01:09:50;15.30;87.20
42663;DHT22;44330;51.360;6.686;2022-09-09T01:12:38;15.20;87.60
42663;DHT22;44330;51.360;6.686;2022-09-09T01:15:13;15.20;87.80
42663;DHT22;44330;51.360;6.686;2022-09-09T01:20:27;15.10;88.70
42663;DHT22;44330;51.360;6.686;2022-09-09T01:28:26;15.10;88.40
42663;DHT22;44330;51.360;6.686;2022-09-09T01:30:55;15.00;88.40
42663;DHT22;44330;51.360;6.686;2022-09-09T01:33:21;15.00;88.40
42663;DHT22;44330;51.360;6.686;2022-09-09T01:35:52;15.00;88.40
42663;DHT22;44330;51.360;6.686;2022-09-09T01:38:24;15.00;88.50
42663;DHT22;44330;51.360;6.686;2022-09-09T01:40:50;15.10;88.70
42663;DHT22;44330;51.360;6.686;2022-09-09T01:43:19;15.10;88.90
42663;DHT22;44330;51.360;6.686;2022-09-09T01:45:46;15.10;88.90
42663;DHT22;44330;51.360;6.686;2022-09-09T01:48:13;15.20;89.10
42663;DHT22;44330;51.360;6.686;2022-09-09T01:50:41;15.20;89.10
42663;DHT22;44330;51.360;6.686;2022-09-09T01:53:06;15.20;89.20
42663;DHT22;44330;51.360;6.686;2022-09-09T01:55:39;15.20;89.40
42663;DHT22;44330;51.360;6.686;2022-09-09T02:00:44;15.20;89.50
42663;DHT22;44330;51.360;6.686;2022-09-09T02:03:23;15.30;89.70
42663;DHT22;44330;51.360;6.686;2022-09-09T02:11:06;15.30;89.30
42663;DHT22;44330;51.360;6.686;2022-09-09T02:13:37;15.40;89.20
42663;DHT22;44330;51.360;6.686;2022-09-09T02:21:12;15.50;85.90
42663;DHT22;44330;51.360;6.686;2022-09-09T02:23:42;15.50;85.90
42663;DHT22;44330;51.360;6.686;2022-09-09T02:26:12;15.50;86.00
42663;DHT22;44330;51.360;6.686;2022-09-09T02:28:40;15.50;86.20
42663;DHT22;44330;51.360;6.686;2022-09-09T02:31:07;15.50;85.90
42663;DHT22;44330;51.360;6.686;2022-09-09T02:33:41;15.50;85.20
42663;DHT22;44330;51.360;6.686;2022-09-09T02:36:09;15.50;85.30
42663;DHT22;44330;51.360;6.686;2022-09-09T02:38:40;15.50;85.30
42663;DHT22;44330;51.360;6.686;2022-09-09T02:41:11;15.50;85.10
42663;DHT22;44330;51.360;6.686;2022-09-09T02:43:36;15.60;85.10
42663;DHT22;44330;51.360;6.686;2022-09-09T02:46:29;15.60;84.30
42663;DHT22;44330;51.360;6.686;2022-09-09T02:49:08;15.60;83.60
42663;DHT22;44330;51.360;6.686;2022-09-09T02:54:28;15.60;83.70
42663;DHT22;44330;51.360;6.686;2022-09-09T02:57:01;15.60;83.80
42663;DHT22;44330;51.360;6.686;2022-09-09T02:59:29;15.60;83.80
42663;DHT22;44330;51.360;6.686;2022-09-09T03:01:55;15.60;83.40
42663;DHT22;44330;51.360;6.686;2022-09-09T03:04:21;15.60;83.80
42663;DHT22;44330;51.360;6.686;2022-09-09T03:06:47;15.60;84.50
42663;DHT22;44330;51.360;6.686;2022-09-09T03:09:12;15.60;84.50
42663;DHT22;44330;51.360;6.686;2022-09-09T03:11:38;15.50;84.70
42663;DHT22;44330;51.360;6.686;2022-09-09T03:14:04;15.50;84.70
42663;DHT22;44330;51.360;6.686;2022-09-09T03:16:30;15.50;84.80
42663;DHT22;44330;51.360;6.686;2022-09-09T03:18:55;15.60;84.60
42663;DHT22;44330;51.360;6.686;2022-09-09T03:21:21;15.70;83.70
42663;DHT22;44330;51.360;6.686;2022-09-09T03:23:47;15.70;83.20
42663;DHT22;44330;51.360;6.686;2022-09-09T03:26:12;15.70;83.40
42663;DHT22;44330;51.360;6.686;2022-09-09T03:28:40;15.70;83.70
42663;DHT22;44330;51.360;6.686;2022-09-09T03:31:06;15.70;84.00
42663;DHT22;44330;51.360;6.686;2022-09-09T03:33:31;15.60;83.90
42663;DHT22;44330;51.360;6.686;2022-09-09T03:35:57;15.60;84.00
42663;DHT22;44330;51.360;6.686;2022-09-09T03:38:24;15.60;84.10
42663;DHT22;44330;51.360;6.686;2022-09-09T03:40:53;15.60;84.00
42663;DHT22;44330;51.360;6.686;2022-09-09T03:43:27;15.60;83.90
42663;DHT22;44330;51.360;6.686;2022-09-09T03:45:54;15.70;83.30
42663;DHT22;44330;51.360;6.686;2022-09-09T03:48:23;15.60;83.30
42663;DHT22;44330;51.360;6.686;2022-09-09T03:50:51;15.60;83.40
42663;DHT22;44330;51.360;6.686;2022-09-09T03:53:19;15.60;83.50
42663;DHT22;44330;51.360;6.686;2022-09-09T03:55:50;15.50;83.70
42663;DHT22;44330;51.360;6.686;2022-09-09T03:58:21;15.50;84.10
42663;DHT22;44330;51.360;6.686;2022-09-09T04:01:08;15.50;84.30
42663;DHT22;44330;51.360;6.686;2022-09-09T04:03:38;15.40;84.40
42663;DHT22;44330;51.360;6.686;2022-09-09T04:06:05;15.40;84.90
42663;DHT22;44330;51.360;6.686;2022-09-09T04:08:34;15.40;85.00
42663;DHT22;44330;51.360;6.686;2022-09-09T04:11:01;15.40;85.00
42663;DHT22;44330;51.360;6.686;2022-09-09T04:13:32;15.40;84.80
42663;DHT22;44330;51.360;6.686;2022-09-09T04:15:58;15.40;85.00
42663;DHT22;44330;51.360;6.686;2022-09-09T04:18:25;15.40;85.00
42663;DHT22;44330;51.360;6.686;2022-09-09T04:20:52;15.50;84.40
42663;DHT22;44330;51.360;6.686;2022-09-09T04:23:20;15.50;84.20
42663;DHT22;44330;51.360;6.686;2022-09-09T04:25:49;15.50;84.50
42663;DHT22;44330;51.360;6.686;2022-09-09T04:28:17;15.50;84.50
42663;DHT22;44330;51.360;6.686;2022-09-09T04:30:44;15.50;84.50
42663;DHT22;44330;51.360;6.686;2022-09-09T04:33:10;15.50;84.30
42663;DHT22;44330;51.360;6.686;2022-09-09T04:35:38;15.50;84.30
42663;DHT22;44330;51.360;6.686;2022-09-09T04:38:04;15.60;83.80
42663;DHT22;44330;51.360;6.686;2022-09-09T04:40:31;15.60;83.60
42663;DHT22;44330;51.360;6.686;2022-09-09T04:43:01;15.60;83.00
42663;DHT22;44330;51.360;6.686;2022-09-09T04:45:28;15.60;83.30
42663;DHT22;44330;51.360;6.686;2022-09-09T04:47:54;15.60;83.50
42663;DHT22;44330;51.360;6.686;2022-09-09T04:50:20;15.70;82.80
42663;DHT22;44330;51.360;6.686;2022-09-09T04:52:46;15.70;81.90
42663;DHT22;44330;51.360;6.686;2022-09-09T04:55:11;15.70;81.30
42663;DHT22;44330;51.360;6.686;2022-09-09T04:57:38;15.70;81.30
42663;DHT22;44330;51.360;6.686;2022-09-09T05:00:04;15.70;82.00
42663;DHT22;44330;51.360;6.686;2022-09-09T05:02:30;15.60;82.40
42663;DHT22;44330;51.360;6.686;2022-09-09T05:04:57;15.60;83.00
42663;DHT22;44330;51.360;6.686;2022-09-09T05:07:23;15.60;83.30
42663;DHT22;44330;51.360;6.686;2022-09-09T05:09:49;15.60;83.30
42663;DHT22;44330;51.360;6.686;2022-09-09T05:12:16;15.70;82.40
42663;DHT22;44330;51.360;6.686;2022-09-09T05:14:43;15.70;82.30
42663;DHT22;44330;51.360;6.686;2022-09-09T05:17:09;15.80;81.20
42663;DHT22;44330;51.360;6.686;2022-09-09T05:19:34;15.70;80.70
42663;DHT22;44330;51.360;6.686;2022-09-09T05:22:00;15.70;80.70
42663;DHT22;44330;51.360;6.686;2022-09-09T05:24:26;15.70;81.20
42663;DHT22;44330;51.360;6.686;2022-09-09T05:26:52;15.70;81.90
42663;DHT22;44330;51.360;6.686;2022-09-09T05:29:17;15.70;82.40
42663;DHT22;44330;51.360;6.686;2022-09-09T05:31:47;15.70;83.10
42663;DHT22;44330;51.360;6.686;2022-09-09T05:34:13;15.70;83.10
42663;DHT22;44330;51.360;6.686;2022-09-09T05:36:38;15.70;83.10
42663;DHT22;44330;51.360;6.686;2022-09-09T05:39:04;15.70;82.40
42663;DHT22;44330;51.360;6.686;2022-09-09T05:41:29;15.70;82.70
42663;DHT22;44330;51.360;6.686;2022-09-09T05:43:56;15.80;82.50
42663;DHT22;44330;51.360;6.686;2022-09-09T05:46:23;15.80;82.40
42663;DHT22;44330;51.360;6.686;2022-09-09T05:48:51;15.80;81.70
42663;DHT22;44330;51.360;6.686;2022-09-09T05:51:22;15.90;81.60
42663;DHT22;44330;51.360;6.686;2022-09-09T05:53:49;15.90;81.60
42663;DHT22;44330;51.360;6.686;2022-09-09T05:56:16;15.90;81.60
42663;DHT22;44330;51.360;6.686;2022-09-09T05:58:45;15.90;81.60
42663;DHT22;44330;51.360;6.686;2022-09-09T06:01:16;15.90;81.40
42663;DHT22;44330;51.360;6.686;2022-09-09T06:03:43;16.00;81.50
42663;DHT22;44330;51.360;6.686;2022-09-09T06:06:12;16.00;80.00
42663;DHT22;44330;51.360;6.686;2022-09-09T06:08:40;16.00;80.20
42663;DHT22;44330;51.360;6.686;2022-09-09T06:11:09;16.10;80.00
42663;DHT22;44330;51.360;6.686;2022-09-09T06:13:36;16.00;79.40
42663;DHT22;44330;51.360;6.686;2022-09-09T06:16:04;16.00;79.60
42663;DHT22;44330;51.360;6.686;2022-09-09T06:18:30;16.10;79.70
42663;DHT22;44330;51.360;6.686;2022-09-09T06:21:04;16.20;78.30
42663;DHT22;44330;51.360;6.686;2022-09-09T06:23:30;16.20;78.50
42663;DHT22;44330;51.360;6.686;2022-09-09T06:26:12;16.30;78.80
42663;DHT22;44330;51.360;6.686;2022-09-09T06:28:38;16.30;78.00
42663;DHT22;44330;51.360;6.686;2022-09-09T06:31:07;16.40;77.30
42663;DHT22;44330;51.360;6.686;2022-09-09T06:33:34;16.50;75.90
42663;DHT22;44330;51.360;6.686;2022-09-09T06:36:02;16.50;75.80
42663;DHT22;44330;51.360;6.686;2022-09-09T06:38:29;16.60;75.70
42663;DHT22;44330;51.360;6.686;2022-09-09T06:40:55;16.70;74.40
42663;DHT22;44330;51.360;6.686;2022-09-09T06:43:22;16.70;73.30
42663;DHT22;44330;51.360;6.686;2022-09-09T06:48:20;16.80;70.80
42663;DHT22;44330;51.360;6.686;2022-09-09T06:50:45;16.90;71.90
42663;DHT22;44330;51.360;6.686;2022-09-09T06:53:11;16.90;70.00
42663;DHT22;44330;51.360;6.686;2022-09-09T06:55:37;16.90;69.20
42663;DHT22;44330;51.360;6.686;2022-09-09T06:58:07;17.00;66.80
42663;DHT22;44330;51.360;6.686;2022-09-09T07:00:33;17.10;65.40
42663;DHT22;44330;51.360;6.686;2022-09-09T07:02:58;17.10;64.10
42663;DHT22;44330;51.360;6.686;2022-09-09T07:05:24;17.10;65.00
42663;DHT22;44330;51.360;6.686;2022-09-09T07:07:51;17.10;63.90
42663;DHT22;44330;51.360;6.686;2022-09-09T07:10:17;17.20;65.60
42663;DHT22;44330;51.360;6.686;2022-09-09T07:12:42;17.20;65.10
42663;DHT22;44330;51.360;6.686;2022-09-09T07:15:08;17.20;61.60
42663;DHT22;44330;51.360;6.686;2022-09-09T07:17:35;17.30;59.00
42663;DHT22;44330;51.360;6.686;2022-09-09T07:20:01;17.30;55.60
42663;DHT22;44330;51.360;6.686;2022-09-09T07:22:28;17.30;49.10
42663;DHT22;44330;51.360;6.686;2022-09-09T07:24:53;17.40;54.50
42663;DHT22;44330;51.360;6.686;2022-09-09T07:27:19;17.40;55.00
42663;DHT22;44330;51.360;6.686;2022-09-09T07:29:47;17.40;53.50
42663;DHT22;44330;51.360;6.686;2022-09-09T07:32:13;17.40;54.40
42663;DHT22;44330;51.360;6.686;2022-09-09T07:34:39;17.40;51.50
42663;DHT22;44330;51.360;6.686;2022-09-09T07:37:05;17.40;47.40
42663;DHT22;44330;51.360;6.686;2022-09-09T07:39:30;17.60;47.60
42663;DHT22;44330;51.360;6.686;2022-09-09T07:41:56;17.70;40.40
42663;DHT22;44330;51.360;6.686;2022-09-09T07:44:23;18.00;29.40
42663;DHT22;44330;51.360;6.686;2022-09-09T07:46:52;18.20;26.70
42663;DHT22;44330;51.360;6.686;2022-09-09T07:49:18;18.20;23.30
42663;DHT22;44330;51.360;6.686;2022-09-09T07:51:48;18.30;24.80
42663;DHT22;44330;51.360;6.686;2022-09-09T07:54:16;18.30;28.60
42663;DHT22;44330;51.360;6.686;2022-09-09T07:56:45;18.50;21.30
42663;DHT22;44330;51.360;6.686;2022-09-09T07:59:12;18.70;14.50
42663;DHT22;44330;51.360;6.686;2022-09-09T08:01:49;18.80;12.30
42663;DHT22;44330;51.360;6.686;2022-09-09T08:04:18;18.90;18.30
42663;DHT22;44330;51.360;6.686;2022-09-09T08:06:47;18.90;11.40
42663;DHT22;44330;51.360;6.686;2022-09-09T08:09:13;18.90;11.20
42663;DHT22;44330;51.360;6.686;2022-09-09T08:11:39;18.90;8.10
42663;DHT22;44330;51.360;6.686;2022-09-09T08:14:07;18.90;5.40
42663;DHT22;44330;51.360;6.686;2022-09-09T08:16:36;18.90;4.20
42663;DHT22;44330;51.360;6.686;2022-09-09T08:19:02;19.00;8.50
42663;DHT22;44330;51.360;6.686;2022-09-09T08:21:29;19.10;1.00
42663;DHT22;44330;51.360;6.686;2022-09-09T08:23:56;19.20;1.00
42663;DHT22;44330;51.360;6.686;2022-09-09T08:26:24;19.30;1.00
42663;DHT22;44330;51.360;6.686;2022-09-09T08:28:52;19.60;1.00
42663;DHT22;44330;51.360;6.686;2022-09-09T08:31:20;19.80;1.00
42663;DHT22;44330;51.360;6.686;2022-09-09T08:33:46;20.10;1.00
42663;DHT22;44330;51.360;6.686;2022-09-09T08:36:14;20.50;1.00
42663;DHT22;44330;51.360;6.686;2022-09-09T08:38:47;20.80;1.00
42663;DHT22;44330;51.360;6.686;2022-09-09T08:49:56;21.20;99.90
42663;DHT22;44330;51.360;6.686;2022-09-09T08:52:28;21.00;99.90
42663;DHT22;44330;51.360;6.686;2022-09-09T08:55:05;20.80;99.90
42663;DHT22;44330;51.360;6.686;2022-09-09T08:57:36;20.70;99.90
42663;DHT22;44330;51.360;6.686;2022-09-09T09:00:02;20.70;99.90
42663;DHT22;44330;51.360;6.686;2022-09-09T09:05:40;20.40;99.90
42663;DHT22;44330;51.360;6.686;2022-09-09T09:10:48;20.40;99.90
42663;DHT22;44330;51.360;6.686;2022-09-09T09:13:45;20.50;99.90
42663;DHT22;44330;51.360;6.686;2022-09-09T09:16:34;20.70;99.90
42663;DHT22;44330;51.360;6.686;2022-09-09T09:19:02;20.70;99.90
42663;DHT22;44330;51.360;6.686;2022-09-09T09:21:45;20.70;99.90
42663;DHT22;44330;51.360;6.686;2022-09-09T09:24:23;20.70;99.90
42663;DHT22;44330;51.360;6.686;2022-09-09T09:26:53;20.60;99.90
42663;DHT22;44330;51.360;6.686;2022-09-09T09:29:20;20.50;99.90
42663;DHT22;44330;51.360;6.686;2022-09-09T09:31:55;20.50;99.90
42663;DHT22;44330;51.360;6.686;2022-09-09T09:34:22;20.50;99.90
42663;DHT22;44330;51.360;6.686;2022-09-09T09:36:59;20.50;99.90
42663;DHT22;44330;51.360;6.686;2022-09-09T09:39:30;20.60;99.90
42663;DHT22;44330;51.360;6.686;2022-09-09T09:41:56;20.60;99.90
42663;DHT22;44330;51.360;6.686;2022-09-09T09:44:28;20.50;99.90
42663;DHT22;44330;51.360;6.686;2022-09-09T09:49:33;20.40;99.90
42663;DHT22;44330;51.360;6.686;2022-09-09T09:52:03;20.50;99.90
42663;DHT22;44330;51.360;6.686;2022-09-09T09:54:39;20.60;99.90
42663;DHT22;44330;51.360;6.686;2022-09-09T09:57:15;21.10;99.90
42663;DHT22;44330;51.360;6.686;2022-09-09T09:59:42;21.50;99.90
42663;DHT22;44330;51.360;6.686;2022-09-09T10:04:39;22.30;99.90
42663;DHT22;44330;51.360;6.686;2022-09-09T10:07:12;22.50;1.00
42663;DHT22;44330;51.360;6.686;2022-09-09T10:09:38;22.90;99.90
42663;DHT22;44330;51.360;6.686;2022-09-09T10:17:49;22.80;99.90
42663;DHT22;44330;51.360;6.686;2022-09-09T10:33:47;21.90;1.00
42663;DHT22;44330;51.360;6.686;2022-09-09T10:36:24;21.80;78.30
42663;DHT22;44330;51.360;6.686;2022-09-09T10:39:03;21.60;99.90
42663;DHT22;44330;51.360;6.686;2022-09-09T10:50:55;21.20;99.90
42663;DHT22;44330;51.360;6.686;2022-09-09T10:53:44;21.20;99.90
42663;DHT22;44330;51.360;6.686;2022-09-09T10:56:17;21.20;99.90
42663;DHT22;44330;51.360;6.686;2022-09-09T11:01:25;21.50;20.30
42663;DHT22;44330;51.360;6.686;2022-09-09T11:03:57;21.50;1.00
42663;DHT22;44330;51.360;6.686;2022-09-09T11:06:28;21.40;99.90
42663;DHT22;44330;51.360;6.686;2022-09-09T11:08:58;21.40;1.00
42663;DHT22;44330;51.360;6.686;2022-09-09T11:11:32;21.20;19.20
42663;DHT22;44330;51.360;6.686;2022-09-09T11:14:07;21.20;7.70
42663;DHT22;44330;51.360;6.686;2022-09-09T11:16:48;21.10;99.90
42663;DHT22;44330;51.360;6.686;2022-09-09T11:19:38;21.10;99.90
42663;DHT22;44330;51.360;6.686;2022-09-09T11:24:53;21.10;99.90
42663;DHT22;44330;51.360;6.686;2022-09-09T11:27:29;21.20;99.90
42663;DHT22;44330;51.360;6.686;2022-09-09T11:30:22;21.40;99.90
42663;DHT22;44330;51.360;6.686;2022-09-09T11:33:16;21.60;99.90
42663;DHT22;44330;51.360;6.686;2022-09-09T11:38:47;21.60;99.90
42663;DHT22;44330;51.360;6.686;2022-09-09T11:41:15;21.50;99.90
42663;DHT22;44330;51.360;6.686;2022-09-09T11:43:51;21.50;99.90
42663;DHT22;44330;51.360;6.686;2022-09-09T11:46:22;21.60;99.90
42663;DHT22;44330;51.360;6.686;2022-09-09T11:49:01;21.60;99.90
42663;DHT22;44330;51.360;6.686;2022-09-09T11:51:29;21.70;99.90
42663;DHT22;44330;51.360;6.686;2022-09-09T11:56:41;22.00;99.90
42663;DHT22;44330;51.360;6.686;2022-09-09T11:59:25;22.00;99.90
42663;DHT22;44330;51.360;6.686;2022-09-09T12:02:12;21.80;99.90
42663;DHT22;44330;51.360;6.686;2022-09-09T12:04:44;21.80;99.90
42663;DHT22;44330;51.360;6.686;2022-09-09T12:07:38;21.70;99.90
42663;DHT22;44330;51.360;6.686;2022-09-09T12:12:37;21.50;99.90
42663;DHT22;44330;51.360;6.686;2022-09-09T12:15:19;21.60;99.50
42663;DHT22;44330;51.360;6.686;2022-09-09T12:17:58;21.80;19.80
42663;DHT22;44330;51.360;6.686;2022-09-09T12:20:34;22.10;1.00
42663;DHT22;44330;51.360;6.686;2022-09-09T12:26:43;22.00;99.90
42663;DHT22;44330;51.360;6.686;2022-09-09T12:34:02;20.30;99.90
42663;DHT22;44330;51.360;6.686;2022-09-09T12:36:30;20.00;99.90
42663;DHT22;44330;51.360;6.686;2022-09-09T12:38:59;19.70;99.90
42663;DHT22;44330;51.360;6.686;2022-09-09T12:41:36;19.60;1.00
42663;DHT22;44330;51.360;6.686;2022-09-09T12:44:09;19.50;34.20
42663;DHT22;44330;51.360;6.686;2022-09-09T12:46:44;19.20;6.00
42663;DHT22;44330;51.360;6.686;2022-09-09T12:49:35;19.10;4.20
42663;DHT22;44330;51.360;6.686;2022-09-09T12:52:30;18.90;1.00
42663;DHT22;44330;51.360;6.686;2022-09-09T12:54:58;18.70;34.80
42663;DHT22;44330;51.360;6.686;2022-09-09T12:57:26;18.50;60.50
42663;DHT22;44330;51.360;6.686;2022-09-09T13:00:12;18.20;62.30
42663;DHT22;44330;51.360;6.686;2022-09-09T13:02:47;18.10;61.80
42663;DHT22;44330;51.360;6.686;2022-09-09T13:05:22;18.00;67.20
42663;DHT22;44330;51.360;6.686;2022-09-09T13:07:48;18.10;68.40
42663;DHT22;44330;51.360;6.686;2022-09-09T13:10:19;18.00;67.00
42663;DHT22;44330;51.360;6.686;2022-09-09T13:12:46;18.10;71.00
42663;DHT22;44330;51.360;6.686;2022-09-09T13:15:19;18.30;74.40
42663;DHT22;44330;51.360;6.686;2022-09-09T13:17:54;18.50;77.30
42663;DHT22;44330;51.360;6.686;2022-09-09T13:20:22;18.70;76.80
42663;DHT22;44330;51.360;6.686;2022-09-09T13:22:49;18.80;64.80
42663;DHT22;44330;51.360;6.686;2022-09-09T13:25:27;19.00;64.70
42663;DHT22;44330;51.360;6.686;2022-09-09T13:28:02;19.00;69.20
42663;DHT22;44330;51.360;6.686;2022-09-09T13:30:32;19.20;65.30
42663;DHT22;44330;51.360;6.686;2022-09-09T13:35:55;19.60;56.60
42663;DHT22;44330;51.360;6.686;2022-09-09T13:38:21;19.90;56.10
42663;DHT22;44330;51.360;6.686;2022-09-09T13:43:23;20.30;47.50
42663;DHT22;44330;51.360;6.686;2022-09-09T13:46:00;20.60;51.50
42663;DHT22;44330;51.360;6.686;2022-09-09T13:48:27;20.80;52.70
42663;DHT22;44330;51.360;6.686;2022-09-09T13:51:28;20.90;19.60
42663;DHT22;44330;51.360;6.686;2022-09-09T13:53:54;21.00;23.00
42663;DHT22;44330;51.360;6.686;2022-09-09T13:56:20;21.20;26.10
42663;DHT22;44330;51.360;6.686;2022-09-09T13:58:46;21.20;16.10
42663;DHT22;44330;51.360;6.686;2022-09-09T14:01:12;21.20;16.90
42663;DHT22;44330;51.360;6.686;2022-09-09T14:03:37;21.10;21.20
42663;DHT22;44330;51.360;6.686;2022-09-09T14:06:03;21.20;1.00
42663;DHT22;44330;51.360;6.686;2022-09-09T14:08:29;21.20;6.40
42663;DHT22;44330;51.360;6.686;2022-09-09T14:11:03;21.40;15.50
42663;DHT22;44330;51.360;6.686;2022-09-09T14:13:28;21.70;1.00
42663;DHT22;44330;51.360;6.686;2022-09-09T14:15:54;21.70;1.00
42663;DHT22;44330;51.360;6.686;2022-09-09T14:18:20;21.70;1.00
42663;DHT22;44330;51.360;6.686;2022-09-09T14:20:47;21.60;1.00
42663;DHT22;44330;51.360;6.686;2022-09-09T14:23:13;21.50;1.00
42663;DHT22;44330;51.360;6.686;2022-09-09T14:25:41;21.30;1.00
42663;DHT22;44330;51.360;6.686;2022-09-09T14:28:11;21.20;1.00
42663;DHT22;44330;51.360;6.686;2022-09-09T14:30:38;20.80;1.00
42663;DHT22;44330;51.360;6.686;2022-09-09T14:33:05;20.10;12.80
42663;DHT22;44330;51.360;6.686;2022-09-09T14:35:30;19.60;23.60
42663;DHT22;44330;51.360;6.686;2022-09-09T14:37:56;19.00;28.60
42663;DHT22;44330;51.360;6.686;2022-09-09T14:40:21;18.60;37.30
42663;DHT22;44330;51.360;6.686;2022-09-09T14:42:47;18.30;38.60
42663;DHT22;44330;51.360;6.686;2022-09-09T14:45:12;18.10;48.50
42663;DHT22;44330;51.360;6.686;2022-09-09T14:47:38;17.90;43.00
42663;DHT22;44330;51.360;6.686;2022-09-09T14:50:05;17.80;51.80
42663;DHT22;44330;51.360;6.686;2022-09-09T14:52:31;17.60;54.40
42663;DHT22;44330;51.360;6.686;2022-09-09T14:54:57;17.60;51.00
42663;DHT22;44330;51.360;6.686;2022-09-09T14:57:22;17.50;55.20
42663;DHT22;44330;51.360;6.686;2022-09-09T14:59:48;17.50;56.20
42663;DHT22;44330;51.360;6.686;2022-09-09T15:02:15;17.40;60.20
42663;DHT22;44330;51.360;6.686;2022-09-09T15:04:41;17.30;60.80
42663;DHT22;44330;51.360;6.686;2022-09-09T15:07:06;17.30;60.30
42663;DHT22;44330;51.360;6.686;2022-09-09T15:09:32;17.20;63.70
42663;DHT22;44330;51.360;6.686;2022-09-09T15:11:57;17.20;63.50
42663;DHT22;44330;51.360;6.686;2022-09-09T15:14:23;17.10;64.90
42663;DHT22;44330;51.360;6.686;2022-09-09T15:16:48;17.10;64.30
42663;DHT22;44330;51.360;6.686;2022-09-09T15:19:14;17.10;65.60
42663;DHT22;44330;51.360;6.686;2022-09-09T15:21:39;17.10;67.40
42663;DHT22;44330;51.360;6.686;2022-09-09T15:24:05;17.10;70.70
42663;DHT22;44330;51.360;6.686;2022-09-09T15:26:33;17.20;68.10
42663;DHT22;44330;51.360;6.686;2022-09-09T15:28:59;17.40;67.40
42663;DHT22;44330;51.360;6.686;2022-09-09T15:31:30;17.50;69.40
42663;DHT22;44330;51.360;6.686;2022-09-09T15:34:00;17.70;72.50
42663;DHT22;44330;51.360;6.686;2022-09-09T15:36:29;17.90;72.10
42663;DHT22;44330;51.360;6.686;2022-09-09T15:38:55;18.10;70.10
42663;DHT22;44330;51.360;6.686;2022-09-09T15:41:22;18.30;66.40
42663;DHT22;44330;51.360;6.686;2022-09-09T15:43:49;18.40;61.90
42663;DHT22;44330;51.360;6.686;2022-09-09T15:46:33;18.50;62.00
42663;DHT22;44330;51.360;6.686;2022-09-09T15:51:42;18.50;60.90
42663;DHT22;44330;51.360;6.686;2022-09-09T15:54:09;18.50;58.30
42663;DHT22;44330;51.360;6.686;2022-09-09T15:56:35;18.50;60.60
42663;DHT22;44330;51.360;6.686;2022-09-09T15:59:02;18.50;59.70
42663;DHT22;44330;51.360;6.686;2022-09-09T16:01:31;18.50;57.90
42663;DHT22;44330;51.360;6.686;2022-09-09T16:03:58;18.60;49.00
42663;DHT22;44330;51.360;6.686;2022-09-09T16:06:26;18.50;49.80
42663;DHT22;44330;51.360;6.686;2022-09-09T16:08:54;18.40;55.60
42663;DHT22;44330;51.360;6.686;2022-09-09T16:11:28;18.50;56.80
42663;DHT22;44330;51.360;6.686;2022-09-09T16:13:55;18.50;56.60
42663;DHT22;44330;51.360;6.686;2022-09-09T16:16:23;18.40;59.80
42663;DHT22;44330;51.360;6.686;2022-09-09T16:18:52;18.40;61.60
42663;DHT22;44330;51.360;6.686;2022-09-09T16:23:49;18.50;60.70
42663;DHT22;44330;51.360;6.686;2022-09-09T16:26:16;18.70;58.30
42663;DHT22;44330;51.360;6.686;2022-09-09T16:28:43;18.60;61.00
42663;DHT22;44330;51.360;6.686;2022-09-09T16:31:10;18.70;61.40
42663;DHT22;44330;51.360;6.686;2022-09-09T16:33:39;18.70;53.80
42663;DHT22;44330;51.360;6.686;2022-09-09T16:36:10;18.60;55.00
42663;DHT22;44330;51.360;6.686;2022-09-09T16:38:36;18.60;57.50
42663;DHT22;44330;51.360;6.686;2022-09-09T16:41:06;18.60;57.80
42663;DHT22;44330;51.360;6.686;2022-09-09T16:43:33;18.60;58.30
42663;DHT22;44330;51.360;6.686;2022-09-09T16:45:59;18.60;61.50
42663;DHT22;44330;51.360;6.686;2022-09-09T16:48:35;18.50;63.70
42663;DHT22;44330;51.360;6.686;2022-09-09T16:51:06;18.50;60.20
42663;DHT22;44330;51.360;6.686;2022-09-09T16:53:33;18.50;61.70
42663;DHT22;44330;51.360;6.686;2022-09-09T16:56:07;18.40;62.70
42663;DHT22;44330;51.360;6.686;2022-09-09T16:58:34;18.40;63.80
42663;DHT22;44330;51.360;6.686;2022-09-09T17:01:04;18.40;63.10
42663;DHT22;44330;51.360;6.686;2022-09-09T17:03:30;18.40;60.80
42663;DHT22;44330;51.360;6.686;2022-09-09T17:05:57;18.30;62.10
42663;DHT22;44330;51.360;6.686;2022-09-09T17:08:23;18.20;59.30
42663;DHT22;44330;51.360;6.686;2022-09-09T17:10:49;18.20;62.30
42663;DHT22;44330;51.360;6.686;2022-09-09T17:13:15;18.20;60.30
42663;DHT22;44330;51.360;6.686;2022-09-09T17:15:42;18.10;59.20
42663;DHT22;44330;51.360;6.686;2022-09-09T17:18:10;18.10;62.30
42663;DHT22;44330;51.360;6.686;2022-09-09T17:20:37;18.00;64.20
42663;DHT22;44330;51.360;6.686;2022-09-09T17:23:03;18.00;66.60
42663;DHT22;44330;51.360;6.686;2022-09-09T17:25:28;18.00;67.40
42663;DHT22;44330;51.360;6.686;2022-09-09T17:27:54;18.00;67.70
42663;DHT22;44330;51.360;6.686;2022-09-09T17:30:19;18.10;70.60
42663;DHT22;44330;51.360;6.686;2022-09-09T17:32:45;18.00;71.20
42663;DHT22;44330;51.360;6.686;2022-09-09T17:35:12;18.00;71.80
42663;DHT22;44330;51.360;6.686;2022-09-09T17:37:37;17.90;73.30
42663;DHT22;44330;51.360;6.686;2022-09-09T17:40:03;17.90;73.50
42663;DHT22;44330;51.360;6.686;2022-09-09T17:42:29;17.90;73.40
42663;DHT22;44330;51.360;6.686;2022-09-09T17:44:55;17.80;73.30
42663;DHT22;44330;51.360;6.686;2022-09-09T17:47:20;17.80;73.20
42663;DHT22;44330;51.360;6.686;2022-09-09T17:49:46;17.80;73.90
42663;DHT22;44330;51.360;6.686;2022-09-09T17:52:11;17.70;74.40
42663;DHT22;44330;51.360;6.686;2022-09-09T17:54:37;17.70;75.00
42663;DHT22;44330;51.360;6.686;2022-09-09T17:57:03;17.60;75.90
42663;DHT22;44330;51.360;6.686;2022-09-09T17:59:28;17.60;75.70